Kenn, Washington
Current Conditions -  °F | °C
As of 4:53 PM on Thursday 27 Nov 2014 (Local Time) from KPSC Reporting Station
Broken Clouds Broken Clouds  
Wind Chill: 62°   Ceiling: 8500
Heat Index: 62°   Visibility: 10mi
Dew Point: 47°   Wind: 9mph
Humidity: 58%   Direction: 230°SW
Pressure: 29.84"   Gusts: NA
Location:  46.2117°N, 119.173°W
Report Text: KPSC 280053Z 23008KT 10SM BKN085 17/08 A2984 RMK AO2 SLP103 T01670083
Loading
Personal Weather Stations






























Interactive Weather Map New forecast layout! Learn more

10-Day Weather Forecast

Advertisements
Track Severe Weather on mobile